createdAt,value
2022-12-27T00:00:51.939Z,87.40
2022-12-27T00:03:22.064Z,87.60
2022-12-27T00:05:51.763Z,87.50
2022-12-27T00:08:21.541Z,87.80
2022-12-27T00:10:51.317Z,87.70
2022-12-27T00:13:20.867Z,87.60
2022-12-27T00:15:50.459Z,87.70
2022-12-27T00:18:20.088Z,87.80
2022-12-27T00:20:49.750Z,87.80
2022-12-27T00:23:19.410Z,87.90
2022-12-27T00:25:49.160Z,88.00
2022-12-27T00:28:19.440Z,87.60
2022-12-27T00:30:55.896Z,87.90
2022-12-27T00:33:25.629Z,88.00
2022-12-27T00:35:55.540Z,87.70
2022-12-27T00:38:26.110Z,88.10
2022-12-27T00:40:56.076Z,88.20
2022-12-27T00:43:25.641Z,88.30
2022-12-27T00:45:55.653Z,88.30
2022-12-27T00:48:25.694Z,88.40
2022-12-27T00:51:04.611Z,88.20
2022-12-27T00:53:35.753Z,88.60
2022-12-27T00:56:13.686Z,88.80
2022-12-27T00:58:43.282Z,88.80
2022-12-27T01:01:21.891Z,88.70
2022-12-27T01:03:51.917Z,89.00
2022-12-27T01:06:24.712Z,89.30
2022-12-27T01:08:54.410Z,89.10
2022-12-27T01:11:24.432Z,89.20
2022-12-27T01:13:54.093Z,89.10
2022-12-27T01:16:25.643Z,88.90
2022-12-27T01:18:55.637Z,88.90
2022-12-27T01:21:27.131Z,88.70
2022-12-27T01:23:56.990Z,88.60
2022-12-27T01:26:27.063Z,88.50
2022-12-27T01:28:57.004Z,88.30
2022-12-27T01:31:30.069Z,88.10
2022-12-27T01:34:01.714Z,87.80
2022-12-27T01:36:33.190Z,87.70
2022-12-27T01:39:04.135Z,87.70
2022-12-27T01:41:56.276Z,87.50
2022-12-27T01:44:53.609Z,87.40
2022-12-27T01:47:40.273Z,87.30
2022-12-27T01:50:23.347Z,87.20
2022-12-27T01:53:12.589Z,87.00
2022-12-27T01:56:03.264Z,86.90
2022-12-27T01:58:44.858Z,86.70
2022-12-27T02:01:24.964Z,86.60
2022-12-27T02:04:03.517Z,86.40
2022-12-27T02:06:34.504Z,86.10
2022-12-27T02:09:28.961Z,85.90
2022-12-27T02:12:00.050Z,85.80
2022-12-27T02:14:48.818Z,85.90
2022-12-27T02:17:32.108Z,85.50
2022-12-27T02:20:24.333Z,85.40
2022-12-27T02:23:45.086Z,85.40
2022-12-27T02:26:50.019Z,85.00
2022-12-27T02:29:44.409Z,84.80
2022-12-27T02:32:29.769Z,84.30
2022-12-27T02:35:16.660Z,83.70
2022-12-27T02:37:54.961Z,83.40
2022-12-27T02:40:45.470Z,83.70
2022-12-27T02:43:35.122Z,82.10
2022-12-27T02:46:48.497Z,82.00
2022-12-27T02:49:58.580Z,81.60
2022-12-27T02:53:07.510Z,81.20
2022-12-27T02:56:35.911Z,81.00
2022-12-27T02:59:38.384Z,81.40
2022-12-27T03:02:52.740Z,80.50
2022-12-27T03:06:16.091Z,80.10
2022-12-27T03:09:11.960Z,79.10
2022-12-27T03:12:12.632Z,78.10
2022-12-27T03:15:08.467Z,78.50
2022-12-27T03:17:46.144Z,78.20
2022-12-27T03:20:41.131Z,78.80
2022-12-27T03:23:31.900Z,77.60
2022-12-27T03:26:05.188Z,77.30
2022-12-27T03:28:56.083Z,76.80
2022-12-27T03:31:55.809Z,75.70
2022-12-27T03:34:41.684Z,75.00
2022-12-27T03:37:39.448Z,72.60
2022-12-27T03:40:36.356Z,72.60
2022-12-27T03:43:17.505Z,72.80
2022-12-27T03:46:35.809Z,73.00
2022-12-27T03:49:37.599Z,72.30
2022-12-27T03:52:28.501Z,72.40
2022-12-27T03:54:59.640Z,72.70
2022-12-27T03:57:30.054Z,72.50
2022-12-27T03:59:59.727Z,72.20
2022-12-27T04:02:29.484Z,72.20
2022-12-27T04:04:59.195Z,71.70
2022-12-27T04:07:28.847Z,71.40
2022-12-27T04:10:18.010Z,70.80
2022-12-27T04:13:07.297Z,70.60
2022-12-27T04:15:56.637Z,70.00
2022-12-27T04:18:45.845Z,70.10
2022-12-27T04:21:35.018Z,70.40
2022-12-27T04:24:24.259Z,70.00
2022-12-27T04:27:13.509Z,70.00
2022-12-27T04:30:02.659Z,69.70
2022-12-27T04:32:51.860Z,69.40
2022-12-27T04:35:21.488Z,68.80
2022-12-27T04:37:51.104Z,66.90
2022-12-27T04:40:40.465Z,66.30
2022-12-27T04:43:31.481Z,64.50
2022-12-27T04:46:20.822Z,65.80
2022-12-27T04:49:10.006Z,65.90
2022-12-27T04:51:59.391Z,66.10
2022-12-27T04:54:48.506Z,66.20
2022-12-27T04:57:18.039Z,66.40
2022-12-27T05:00:07.135Z,66.50
2022-12-27T05:02:36.926Z,66.60
2022-12-27T05:05:06.910Z,66.60
2022-12-27T05:07:56.118Z,66.60
2022-12-27T05:10:45.402Z,66.20
2022-12-27T05:13:35.410Z,65.90
2022-12-27T05:16:05.073Z,65.70
2022-12-27T05:18:34.621Z,64.90
2022-12-27T05:21:06.379Z,64.80
2022-12-27T05:24:04.883Z,64.20
2022-12-27T05:26:36.112Z,64.60
2022-12-27T05:29:06.054Z,64.50
2022-12-27T05:31:36.144Z,63.90
2022-12-27T05:34:06.779Z,64.00
2022-12-27T05:36:36.571Z,63.40
2022-12-27T05:39:06.217Z,63.30
2022-12-27T05:41:35.775Z,63.20
2022-12-27T05:44:07.628Z,62.30
2022-12-27T05:46:37.748Z,62.30
2022-12-27T05:49:07.451Z,62.30
2022-12-27T05:51:37.099Z,62.50
2022-12-27T05:54:07.023Z,62.50
2022-12-27T05:56:38.902Z,62.30
2022-12-27T05:59:09.728Z,62.10
2022-12-27T06:01:39.351Z,62.30
2022-12-27T06:04:08.864Z,62.20
2022-12-27T06:06:38.517Z,61.10
2022-12-27T06:09:08.030Z,61.90
2022-12-27T06:11:37.553Z,61.70
2022-12-27T06:14:07.137Z,61.60
2022-12-27T06:16:36.801Z,61.20
2022-12-27T06:19:06.450Z,61.40
2022-12-27T06:21:36.143Z,61.30
2022-12-27T06:24:05.853Z,61.20
2022-12-27T06:26:36.033Z,61.10
2022-12-27T06:29:05.710Z,61.20
2022-12-27T06:31:35.343Z,61.10
2022-12-27T06:34:04.959Z,60.80
2022-12-27T06:36:34.694Z,60.60
2022-12-27T06:39:04.419Z,60.60
2022-12-27T06:41:34.093Z,60.60
2022-12-27T06:44:03.790Z,60.40
2022-12-27T06:46:34.245Z,60.20
2022-12-27T06:49:04.105Z,60.80
2022-12-27T06:51:33.754Z,60.70
2022-12-27T06:54:03.387Z,60.80
2022-12-27T06:56:33.004Z,60.60
2022-12-27T06:59:02.871Z,60.30
2022-12-27T07:01:32.539Z,60.00
2022-12-27T07:04:03.315Z,60.40
2022-12-27T07:06:34.462Z,59.80
2022-12-27T07:09:04.064Z,59.90
2022-12-27T07:11:36.219Z,59.30
2022-12-27T07:14:07.191Z,59.10
2022-12-27T07:16:37.094Z,59.40
2022-12-27T07:19:06.891Z,59.40
2022-12-27T07:21:36.400Z,59.10
2022-12-27T07:24:06.224Z,58.80
2022-12-27T07:26:35.701Z,58.70
2022-12-27T07:29:05.306Z,58.60
2022-12-27T07:31:35.582Z,56.90
2022-12-27T07:34:05.965Z,57.00
2022-12-27T07:36:41.499Z,57.40
2022-12-27T07:39:11.408Z,57.80
2022-12-27T07:41:40.992Z,57.70
2022-12-27T07:44:11.481Z,57.80
2022-12-27T07:46:42.001Z,57.90
2022-12-27T07:49:17.555Z,57.90
2022-12-27T07:51:47.796Z,57.60
2022-12-27T07:54:17.376Z,57.60
2022-12-27T07:56:47.045Z,57.60
2022-12-27T07:59:17.025Z,57.70
2022-12-27T08:02:06.556Z,57.80
2022-12-27T08:04:39.874Z,58.00
2022-12-27T08:07:19.372Z,57.50
2022-12-27T08:09:50.295Z,56.80
2022-12-27T08:12:19.836Z,56.60
2022-12-27T08:14:49.563Z,56.60
2022-12-27T08:17:23.642Z,56.60
2022-12-27T08:19:57.437Z,56.40
2022-12-27T08:22:27.076Z,56.60
2022-12-27T08:24:57.880Z,56.80
2022-12-27T08:27:27.982Z,56.60
2022-12-27T08:29:57.548Z,56.50
2022-12-27T08:32:27.247Z,56.30
2022-12-27T08:35:07.036Z,56.70
2022-12-27T08:37:46.493Z,56.60
2022-12-27T08:40:16.063Z,56.50
2022-12-27T08:42:45.628Z,56.50
2022-12-27T08:45:15.858Z,56.60
2022-12-27T08:47:46.157Z,56.60
2022-12-27T08:50:15.642Z,56.70
2022-12-27T08:52:45.144Z,57.40
2022-12-27T08:55:14.763Z,56.90
2022-12-27T08:57:44.310Z,57.00
2022-12-27T09:00:14.553Z,57.00
2022-12-27T09:02:44.371Z,57.10
2022-12-27T09:05:13.955Z,57.30
2022-12-27T09:07:43.448Z,57.20
2022-12-27T09:10:13.030Z,57.40
2022-12-27T09:12:42.623Z,57.30
2022-12-27T09:15:12.504Z,57.20
2022-12-27T09:17:42.855Z,57.50
2022-12-27T09:20:14.015Z,57.60
2022-12-27T09:22:43.770Z,57.50
2022-12-27T09:25:13.530Z,57.60
2022-12-27T09:27:43.135Z,57.60
2022-12-27T09:30:13.220Z,57.40
2022-12-27T09:32:42.735Z,57.50
2022-12-27T09:35:12.443Z,57.60
2022-12-27T09:37:42.127Z,57.50
2022-12-27T09:40:16.777Z,57.60
2022-12-27T09:43:22.357Z,57.60
2022-12-27T09:45:59.125Z,57.50
2022-12-27T09:48:39.134Z,57.60
2022-12-27T09:51:23.150Z,57.40
2022-12-27T09:54:16.921Z,57.40
2022-12-27T09:57:18.283Z,57.60
2022-12-27T09:59:40.674Z,57.40
2022-12-27T10:02:30.901Z,57.40
2022-12-27T10:05:19.867Z,57.50
2022-12-27T10:08:16.985Z,57.60
2022-12-27T10:11:31.629Z,57.70
2022-12-27T10:14:23.939Z,57.50
2022-12-27T10:17:13.714Z,57.80
2022-12-27T10:19:55.422Z,57.80
2022-12-27T10:22:44.961Z,58.00
2022-12-27T10:25:16.785Z,58.00
2022-12-27T10:27:48.822Z,58.00
2022-12-27T10:30:21.582Z,58.00
2022-12-27T10:32:51.746Z,58.10
2022-12-27T10:35:23.215Z,58.20
2022-12-27T10:37:55.260Z,58.40
2022-12-27T10:40:39.953Z,58.50
2022-12-27T10:43:37.317Z,58.60
2022-12-27T10:46:33.906Z,58.70
2022-12-27T10:49:20.692Z,58.80
2022-12-27T10:51:52.354Z,59.00
2022-12-27T10:54:33.086Z,59.30
2022-12-27T10:57:30.511Z,59.30
2022-12-27T11:00:23.935Z,59.60
2022-12-27T11:02:58.668Z,60.60
2022-12-27T11:05:32.156Z,60.00
2022-12-27T11:08:05.117Z,60.40
2022-12-27T11:10:34.725Z,60.70
2022-12-27T11:13:19.750Z,61.00
2022-12-27T11:15:59.270Z,61.20
2022-12-27T11:18:29.096Z,61.70
2022-12-27T11:21:01.090Z,62.10
2022-12-27T11:23:44.824Z,62.30
2022-12-27T11:26:23.044Z,62.60
2022-12-27T11:29:00.779Z,62.80
2022-12-27T11:31:43.602Z,63.30
2022-12-27T11:34:34.195Z,63.60
2022-12-27T11:37:18.604Z,64.30
2022-12-27T11:39:57.489Z,64.40
2022-12-27T11:42:49.741Z,64.60
2022-12-27T11:45:29.342Z,65.20
2022-12-27T11:48:21.814Z,65.50
2022-12-27T11:51:32.017Z,65.70
2022-12-27T11:54:37.251Z,66.00
2022-12-27T11:57:46.008Z,66.50
2022-12-27T12:00:24.045Z,66.80
2022-12-27T12:03:12.761Z,67.30
2022-12-27T12:06:21.504Z,67.50
2022-12-27T12:09:30.306Z,68.00
2022-12-27T12:12:27.503Z,68.50
2022-12-27T12:15:36.327Z,68.90
2022-12-27T12:18:33.219Z,69.50
2022-12-27T12:21:28.463Z,70.00
2022-12-27T12:24:37.199Z,70.10
2022-12-27T12:27:38.688Z,70.40
2022-12-27T12:30:47.678Z,70.60
2022-12-27T12:33:56.465Z,70.40
2022-12-27T12:36:55.692Z,70.80
2022-12-27T12:40:00.668Z,71.10
2022-12-27T12:42:57.257Z,71.30
2022-12-27T12:46:07.004Z,71.30
2022-12-27T12:49:15.756Z,71.50
2022-12-27T12:52:17.687Z,71.70
2022-12-27T12:55:12.551Z,71.70
2022-12-27T12:58:07.535Z,72.10
2022-12-27T13:01:06.706Z,73.00
2022-12-27T13:04:15.580Z,72.30
2022-12-27T13:07:24.577Z,72.50
2022-12-27T13:10:33.400Z,72.80
2022-12-27T13:13:42.091Z,73.20
2022-12-27T13:16:27.619Z,73.40
2022-12-27T13:19:36.438Z,73.40
2022-12-27T13:22:39.641Z,73.70
2022-12-27T13:25:48.323Z,73.70
2022-12-27T13:28:57.059Z,73.90
2022-12-27T13:32:05.723Z,74.00
2022-12-27T13:34:45.751Z,74.20
2022-12-27T13:37:42.383Z,74.20
2022-12-27T13:40:51.191Z,74.70
2022-12-27T13:43:59.859Z,74.80
2022-12-27T13:47:08.610Z,75.30
2022-12-27T13:50:15.320Z,75.20
2022-12-27T13:53:16.031Z,75.50
2022-12-27T13:56:20.449Z,75.70
2022-12-27T13:59:31.305Z,75.80
2022-12-27T14:02:40.211Z,76.30
2022-12-27T14:05:46.306Z,76.70
2022-12-27T14:08:35.278Z,76.70
2022-12-27T14:11:16.655Z,76.80
2022-12-27T14:13:46.497Z,76.90
2022-12-27T14:16:40.195Z,77.10
2022-12-27T14:19:48.869Z,77.00
2022-12-27T14:22:53.971Z,77.20
2022-12-27T14:25:53.563Z,77.60
2022-12-27T14:29:00.167Z,77.70
2022-12-27T14:32:04.656Z,77.70
2022-12-27T14:35:13.406Z,77.80
2022-12-27T14:38:22.119Z,77.50
2022-12-27T14:41:30.889Z,77.70
2022-12-27T14:44:28.152Z,78.00
2022-12-27T14:47:36.887Z,78.20
2022-12-27T14:50:45.553Z,78.30
2022-12-27T14:53:53.170Z,78.60
2022-12-27T14:57:02.028Z,78.50
2022-12-27T15:00:03.761Z,78.50
2022-12-27T15:03:12.520Z,79.10
2022-12-27T15:06:20.244Z,79.10
2022-12-27T15:09:05.422Z,79.30
2022-12-27T15:12:06.910Z,79.20
2022-12-27T15:15:01.764Z,79.30
2022-12-27T15:17:52.784Z,79.40
2022-12-27T15:21:01.544Z,79.60
2022-12-27T15:23:44.667Z,79.70
2022-12-27T15:26:42.516Z,79.70
2022-12-27T15:29:29.971Z,79.70
2022-12-27T15:32:38.633Z,79.60
2022-12-27T15:35:40.391Z,79.90
2022-12-27T15:38:53.997Z,80.10
2022-12-27T15:41:46.705Z,80.30
2022-12-27T15:44:48.369Z,80.10
2022-12-27T15:47:57.095Z,80.30
2022-12-27T15:50:46.372Z,80.40
2022-12-27T15:53:39.205Z,80.50
2022-12-27T15:56:38.284Z,80.60
2022-12-27T15:59:43.110Z,80.70
2022-12-27T16:02:40.170Z,80.80
2022-12-27T16:05:49.129Z,80.70
2022-12-27T16:08:28.286Z,80.90
2022-12-27T16:10:59.528Z,81.70
2022-12-27T16:13:42.915Z,81.10
2022-12-27T16:16:36.595Z,81.10
2022-12-27T16:19:40.371Z,81.10
2022-12-27T16:22:41.773Z,81.20
2022-12-27T16:25:35.121Z,81.30
2022-12-27T16:28:21.275Z,81.20
2022-12-27T16:30:57.868Z,81.30
2022-12-27T16:33:39.156Z,81.10
2022-12-27T16:36:29.994Z,81.60
2022-12-27T16:39:25.840Z,81.10
2022-12-27T16:42:08.499Z,82.30
2022-12-27T16:45:17.200Z,81.80
2022-12-27T16:48:09.044Z,82.30
2022-12-27T16:50:49.230Z,82.00
2022-12-27T16:53:42.996Z,81.70
2022-12-27T16:56:23.393Z,82.10
2022-12-27T16:58:53.700Z,81.90
2022-12-27T17:01:51.869Z,81.80
2022-12-27T17:05:02.000Z,82.20
2022-12-27T17:07:58.195Z,82.40
2022-12-27T17:10:45.825Z,82.60
2022-12-27T17:13:54.601Z,82.50
2022-12-27T17:16:27.588Z,82.70
2022-12-27T17:19:09.754Z,83.00
2022-12-27T17:21:41.417Z,83.10
2022-12-27T17:24:20.764Z,83.10
2022-12-27T17:27:25.635Z,82.70
2022-12-27T17:30:27.211Z,82.80
2022-12-27T17:33:29.125Z,83.10
2022-12-27T17:36:17.071Z,83.40
2022-12-27T17:39:21.203Z,83.30
2022-12-27T17:42:33.558Z,83.40
2022-12-27T17:45:35.611Z,83.30
2022-12-27T17:48:27.809Z,83.60
2022-12-27T17:51:13.475Z,83.30
2022-12-27T17:54:14.638Z,83.50
2022-12-27T17:57:09.868Z,83.50
2022-12-27T17:59:46.384Z,83.20
2022-12-27T18:02:26.942Z,83.70
2022-12-27T18:04:59.414Z,83.60
2022-12-27T18:07:31.637Z,83.90
2022-12-27T18:10:05.873Z,83.70
2022-12-27T18:12:44.033Z,83.80
2022-12-27T18:15:24.654Z,84.30
2022-12-27T18:18:00.829Z,84.50
2022-12-27T18:20:37.458Z,84.40
2022-12-27T18:23:18.528Z,84.40
2022-12-27T18:25:54.624Z,84.40
2022-12-27T18:28:32.867Z,84.50
2022-12-27T18:31:34.230Z,84.60
2022-12-27T18:34:09.374Z,84.60
2022-12-27T18:36:49.453Z,84.60
2022-12-27T18:39:42.065Z,84.40
2022-12-27T18:42:41.517Z,84.20
2022-12-27T18:45:22.502Z,84.40
2022-12-27T18:47:55.393Z,84.70
2022-12-27T18:50:28.530Z,84.80
2022-12-27T18:53:25.299Z,84.80
2022-12-27T18:56:24.732Z,84.90
2022-12-27T18:59:03.487Z,85.00
2022-12-27T19:01:43.099Z,85.00
2022-12-27T19:04:24.720Z,85.00
2022-12-27T19:07:14.647Z,85.30
2022-12-27T19:09:51.571Z,85.20
2022-12-27T19:12:41.259Z,85.40
2022-12-27T19:15:26.512Z,85.40
2022-12-27T19:18:01.615Z,85.50
2022-12-27T19:20:37.580Z,85.40
2022-12-27T19:23:26.659Z,85.40
2022-12-27T19:26:26.068Z,85.30
2022-12-27T19:29:08.130Z,85.50
2022-12-27T19:31:39.921Z,85.60
2022-12-27T19:34:15.650Z,85.70
2022-12-27T19:36:47.445Z,85.60
2022-12-27T19:39:24.372Z,85.50
2022-12-27T19:42:01.055Z,85.40
2022-12-27T19:44:31.571Z,85.50
2022-12-27T19:47:01.561Z,85.50
2022-12-27T19:49:42.565Z,85.50
2022-12-27T19:52:25.714Z,85.60
2022-12-27T19:55:04.017Z,85.60
2022-12-27T19:57:33.097Z,85.60
2022-12-27T20:00:08.467Z,86.00
2022-12-27T20:02:42.061Z,85.70
2022-12-27T20:05:12.791Z,85.70
2022-12-27T20:07:42.748Z,85.50
2022-12-27T20:10:16.866Z,85.50
2022-12-27T20:12:46.392Z,85.40
2022-12-27T20:15:15.960Z,85.60
2022-12-27T20:17:45.496Z,85.70
2022-12-27T20:20:15.234Z,85.90
2022-12-27T20:22:44.886Z,85.70
2022-12-27T20:25:14.941Z,85.80
2022-12-27T20:27:46.307Z,85.90
2022-12-27T20:30:16.287Z,86.00
2022-12-27T20:32:45.754Z,86.00
2022-12-27T20:35:15.389Z,86.10
2022-12-27T20:37:45.129Z,86.10
2022-12-27T20:40:14.803Z,86.20
2022-12-27T20:42:44.440Z,86.20
2022-12-27T20:45:14.160Z,86.20
2022-12-27T20:47:43.994Z,86.10
2022-12-27T20:50:13.627Z,86.10
2022-12-27T20:52:43.160Z,86.30
2022-12-27T20:55:14.597Z,86.60
2022-12-27T20:57:44.297Z,86.50
2022-12-27T21:00:16.779Z,86.50
2022-12-27T21:02:46.826Z,86.50
2022-12-27T21:05:19.000Z,86.50
2022-12-27T21:07:48.615Z,86.40
2022-12-27T21:10:18.328Z,86.40
2022-12-27T21:12:47.913Z,86.70
2022-12-27T21:15:17.669Z,86.70
2022-12-27T21:17:47.245Z,86.70
2022-12-27T21:20:16.920Z,86.70
2022-12-27T21:22:46.526Z,86.80
2022-12-27T21:25:16.175Z,86.70
2022-12-27T21:27:45.719Z,86.90
2022-12-27T21:30:15.816Z,86.70
2022-12-27T21:32:45.473Z,86.70
2022-12-27T21:35:15.175Z,86.80
2022-12-27T21:37:44.922Z,86.90
2022-12-27T21:40:14.829Z,86.90
2022-12-27T21:42:44.552Z,86.90
2022-12-27T21:45:14.184Z,86.90
2022-12-27T21:47:43.761Z,87.00
2022-12-27T21:50:13.425Z,86.80
2022-12-27T21:52:43.026Z,86.70
2022-12-27T21:55:12.854Z,86.70
2022-12-27T21:57:42.400Z,86.90
2022-12-27T22:00:12.915Z,86.80
2022-12-27T22:02:43.121Z,86.80
2022-12-27T22:05:13.046Z,87.00
2022-12-27T22:07:42.619Z,87.00
2022-12-27T22:10:12.441Z,86.80
2022-12-27T22:12:41.941Z,87.00
2022-12-27T22:15:11.971Z,86.90
2022-12-27T22:17:41.504Z,87.00
2022-12-27T22:20:11.660Z,87.00
2022-12-27T22:22:41.226Z,87.10
2022-12-27T22:25:11.536Z,87.10
2022-12-27T22:27:41.195Z,87.10
2022-12-27T22:30:11.115Z,87.20
2022-12-27T22:32:40.653Z,87.30
2022-12-27T22:35:10.622Z,87.30
2022-12-27T22:37:40.229Z,87.20
2022-12-27T22:40:37.896Z,87.30
2022-12-27T22:42:59.770Z,87.40
2022-12-27T22:45:29.338Z,87.20
2022-12-27T22:47:59.361Z,87.30
2022-12-27T22:50:28.945Z,87.40
2022-12-27T22:52:58.387Z,87.50
2022-12-27T22:55:28.022Z,87.50
2022-12-27T22:57:57.569Z,87.40
2022-12-27T23:00:27.160Z,87.40
2022-12-27T23:02:57.476Z,87.50
2022-12-27T23:05:28.446Z,87.60
2022-12-27T23:08:04.220Z,87.80
2022-12-27T23:10:36.536Z,87.80
2022-12-27T23:13:06.104Z,88.10
2022-12-27T23:15:35.667Z,87.80
2022-12-27T23:18:05.316Z,87.80
2022-12-27T23:20:36.805Z,87.80
2022-12-27T23:23:06.323Z,87.80
2022-12-27T23:25:38.522Z,87.80
2022-12-27T23:28:08.055Z,88.50
2022-12-27T23:30:37.616Z,87.80
2022-12-27T23:33:07.276Z,87.80
2022-12-27T23:35:36.911Z,87.80
2022-12-27T23:38:07.307Z,87.90
2022-12-27T23:40:36.812Z,87.70
2022-12-27T23:43:33.271Z,87.70
2022-12-27T23:45:55.930Z,88.00
2022-12-27T23:48:25.502Z,88.30
2022-12-27T23:50:55.064Z,88.10
2022-12-27T23:53:24.761Z,88.20
2022-12-27T23:56:18.160Z,88.30
2022-12-27T23:58:48.197Z,88.00
